sensor_id;sensor_type;location;lat;lon;timestamp;P1;durP1;ratioP1;P2;durP2;ratioP2
28629;SDS011;15817;42.130;24.762;2022-12-18T00:01:52;51.08;;;33.78;;
28629;SDS011;15817;42.130;24.762;2022-12-18T00:04:22;53.60;;;34.97;;
28629;SDS011;15817;42.130;24.762;2022-12-18T00:06:49;52.67;;;35.13;;
28629;SDS011;15817;42.130;24.762;2022-12-18T00:09:18;49.35;;;32.53;;
28629;SDS011;15817;42.130;24.762;2022-12-18T00:11:45;47.60;;;32.65;;
28629;SDS011;15817;42.130;24.762;2022-12-18T00:14:14;52.53;;;34.28;;
28629;SDS011;15817;42.130;24.762;2022-12-18T00:16:42;50.50;;;33.33;;
28629;SDS011;15817;42.130;24.762;2022-12-18T00:19:11;47.33;;;33.03;;
28629;SDS011;15817;42.130;24.762;2022-12-18T00:21:38;49.90;;;33.88;;
28629;SDS011;15817;42.130;24.762;2022-12-18T00:24:07;45.70;;;32.30;;
28629;SDS011;15817;42.130;24.762;2022-12-18T00:26:34;49.25;;;33.40;;
28629;SDS011;15817;42.130;24.762;2022-12-18T00:29:06;45.92;;;32.70;;
28629;SDS011;15817;42.130;24.762;2022-12-18T00:31:42;48.72;;;32.03;;
28629;SDS011;15817;42.130;24.762;2022-12-18T00:34:21;47.72;;;32.88;;
28629;SDS011;15817;42.130;24.762;2022-12-18T00:36:59;53.38;;;33.72;;
28629;SDS011;15817;42.130;24.762;2022-12-18T00:39:25;54.33;;;34.50;;
28629;SDS011;15817;42.130;24.762;2022-12-18T00:41:53;49.47;;;33.22;;
28629;SDS011;15817;42.130;24.762;2022-12-18T00:44:48;50.22;;;33.70;;
28629;SDS011;15817;42.130;24.762;2022-12-18T00:47:22;48.05;;;33.67;;
28629;SDS011;15817;42.130;24.762;2022-12-18T00:49:50;48.35;;;33.38;;
28629;SDS011;15817;42.130;24.762;2022-12-18T00:52:18;53.72;;;33.63;;
28629;SDS011;15817;42.130;24.762;2022-12-18T00:54:46;69.82;;;37.10;;
28629;SDS011;15817;42.130;24.762;2022-12-18T00:57:15;57.63;;;36.95;;
28629;SDS011;15817;42.130;24.762;2022-12-18T00:59:43;68.53;;;34.83;;
28629;SDS011;15817;42.130;24.762;2022-12-18T01:02:10;70.97;;;33.85;;
28629;SDS011;15817;42.130;24.762;2022-12-18T01:04:36;80.72;;;32.90;;
28629;SDS011;15817;42.130;24.762;2022-12-18T01:07:02;89.43;;;31.90;;
28629;SDS011;15817;42.130;24.762;2022-12-18T01:09:28;86.97;;;32.20;;
28629;SDS011;15817;42.130;24.762;2022-12-18T01:11:59;56.05;;;30.90;;
28629;SDS011;15817;42.130;24.762;2022-12-18T01:14:29;67.07;;;31.60;;
28629;SDS011;15817;42.130;24.762;2022-12-18T01:16:55;49.83;;;31.88;;
28629;SDS011;15817;42.130;24.762;2022-12-18T01:19:21;48.55;;;31.70;;
28629;SDS011;15817;42.130;24.762;2022-12-18T01:21:47;54.00;;;32.30;;
28629;SDS011;15817;42.130;24.762;2022-12-18T01:24:13;42.90;;;29.50;;
28629;SDS011;15817;42.130;24.762;2022-12-18T01:26:42;44.88;;;32.25;;
28629;SDS011;15817;42.130;24.762;2022-12-18T01:29:13;46.28;;;30.63;;
28629;SDS011;15817;42.130;24.762;2022-12-18T01:31:39;42.10;;;29.13;;
28629;SDS011;15817;42.130;24.762;2022-12-18T01:34:05;43.58;;;30.48;;
28629;SDS011;15817;42.130;24.762;2022-12-18T01:36:34;43.22;;;30.50;;
28629;SDS011;15817;42.130;24.762;2022-12-18T01:39:03;40.90;;;29.48;;
28629;SDS011;15817;42.130;24.762;2022-12-18T01:41:32;40.88;;;29.10;;
28629;SDS011;15817;42.130;24.762;2022-12-18T01:50:13;47.05;;;31.02;;
28629;SDS011;15817;42.130;24.762;2022-12-18T01:52:46;42.90;;;30.88;;
28629;SDS011;15817;42.130;24.762;2022-12-18T01:55:19;50.63;;;33.53;;
28629;SDS011;15817;42.130;24.762;2022-12-18T01:57:47;48.53;;;33.75;;
28629;SDS011;15817;42.130;24.762;2022-12-18T02:00:18;45.20;;;31.67;;
28629;SDS011;15817;42.130;24.762;2022-12-18T02:02:46;42.45;;;28.88;;
28629;SDS011;15817;42.130;24.762;2022-12-18T02:05:15;42.22;;;27.95;;
28629;SDS011;15817;42.130;24.762;2022-12-18T02:07:57;41.72;;;28.58;;
28629;SDS011;15817;42.130;24.762;2022-12-18T02:10:33;36.75;;;26.13;;
28629;SDS011;15817;42.130;24.762;2022-12-18T02:13:24;35.60;;;24.58;;
28629;SDS011;15817;42.130;24.762;2022-12-18T02:16:24;36.00;;;25.13;;
28629;SDS011;15817;42.130;24.762;2022-12-18T02:24:57;35.28;;;23.45;;
28629;SDS011;15817;42.130;24.762;2022-12-18T02:27:32;35.05;;;23.58;;
28629;SDS011;15817;42.130;24.762;2022-12-18T02:30:04;31.50;;;22.73;;
28629;SDS011;15817;42.130;24.762;2022-12-18T02:32:37;37.00;;;24.00;;
28629;SDS011;15817;42.130;24.762;2022-12-18T02:35:27;37.70;;;23.35;;
28629;SDS011;15817;42.130;24.762;2022-12-18T02:38:03;31.70;;;21.92;;
28629;SDS011;15817;42.130;24.762;2022-12-18T02:43:34;32.08;;;21.38;;
28629;SDS011;15817;42.130;24.762;2022-12-18T02:49:31;32.00;;;21.20;;
28629;SDS011;15817;42.130;24.762;2022-12-18T03:00:43;30.42;;;20.67;;
28629;SDS011;15817;42.130;24.762;2022-12-18T03:03:24;25.95;;;18.77;;
28629;SDS011;15817;42.130;24.762;2022-12-18T03:06:06;24.35;;;18.70;;
28629;SDS011;15817;42.130;24.762;2022-12-18T03:08:42;25.83;;;19.52;;
28629;SDS011;15817;42.130;24.762;2022-12-18T03:11:14;27.05;;;19.75;;
28629;SDS011;15817;42.130;24.762;2022-12-18T03:13:43;27.58;;;19.30;;
28629;SDS011;15817;42.130;24.762;2022-12-18T03:16:24;24.63;;;19.08;;
28629;SDS011;15817;42.130;24.762;2022-12-18T03:19:06;23.42;;;18.63;;
28629;SDS011;15817;42.130;24.762;2022-12-18T03:21:43;24.90;;;18.23;;
28629;SDS011;15817;42.130;24.762;2022-12-18T03:24:17;23.83;;;18.83;;
28629;SDS011;15817;42.130;24.762;2022-12-18T03:26:53;26.90;;;19.35;;
28629;SDS011;15817;42.130;24.762;2022-12-18T03:29:31;25.17;;;18.45;;
28629;SDS011;15817;42.130;24.762;2022-12-18T03:32:05;24.80;;;19.17;;
28629;SDS011;15817;42.130;24.762;2022-12-18T03:34:45;25.02;;;18.88;;
28629;SDS011;15817;42.130;24.762;2022-12-18T03:37:22;30.48;;;18.35;;
28629;SDS011;15817;42.130;24.762;2022-12-18T03:40:00;25.92;;;18.15;;
28629;SDS011;15817;42.130;24.762;2022-12-18T03:43:14;25.75;;;16.95;;
28629;SDS011;15817;42.130;24.762;2022-12-18T03:46:41;27.17;;;17.70;;
28629;SDS011;15817;42.130;24.762;2022-12-18T03:49:21;28.55;;;18.42;;
28629;SDS011;15817;42.130;24.762;2022-12-18T03:52:01;27.30;;;19.55;;
28629;SDS011;15817;42.130;24.762;2022-12-18T03:54:31;27.92;;;17.85;;
28629;SDS011;15817;42.130;24.762;2022-12-18T03:57:09;26.60;;;17.50;;
28629;SDS011;15817;42.130;24.762;2022-12-18T03:59:54;24.48;;;16.92;;
28629;SDS011;15817;42.130;24.762;2022-12-18T04:02:54;23.50;;;16.58;;
28629;SDS011;15817;42.130;24.762;2022-12-18T04:05:38;23.45;;;16.70;;
28629;SDS011;15817;42.130;24.762;2022-12-18T04:08:18;20.60;;;16.10;;
28629;SDS011;15817;42.130;24.762;2022-12-18T04:11:43;19.40;;;14.95;;
28629;SDS011;15817;42.130;24.762;2022-12-18T04:14:20;20.33;;;15.73;;
28629;SDS011;15817;42.130;24.762;2022-12-18T04:16:52;18.40;;;13.75;;
28629;SDS011;15817;42.130;24.762;2022-12-18T04:19:25;18.55;;;14.10;;
28629;SDS011;15817;42.130;24.762;2022-12-18T04:22:03;20.65;;;13.80;;
28629;SDS011;15817;42.130;24.762;2022-12-18T04:24:35;18.75;;;14.27;;
28629;SDS011;15817;42.130;24.762;2022-12-18T04:27:08;15.88;;;12.93;;
28629;SDS011;15817;42.130;24.762;2022-12-18T04:29:41;17.98;;;13.18;;
28629;SDS011;15817;42.130;24.762;2022-12-18T04:32:07;16.35;;;12.98;;
28629;SDS011;15817;42.130;24.762;2022-12-18T04:34:35;13.52;;;10.40;;
28629;SDS011;15817;42.130;24.762;2022-12-18T04:37:01;14.48;;;11.38;;
28629;SDS011;15817;42.130;24.762;2022-12-18T04:39:28;11.20;;;8.95;;
28629;SDS011;15817;42.130;24.762;2022-12-18T04:41:59;14.10;;;8.40;;
28629;SDS011;15817;42.130;24.762;2022-12-18T04:44:28;11.70;;;8.60;;
28629;SDS011;15817;42.130;24.762;2022-12-18T04:46:53;11.52;;;8.30;;
28629;SDS011;15817;42.130;24.762;2022-12-18T04:49:19;9.85;;;7.53;;
28629;SDS011;15817;42.130;24.762;2022-12-18T04:51:51;11.10;;;7.95;;
28629;SDS011;15817;42.130;24.762;2022-12-18T04:54:19;9.32;;;7.03;;
28629;SDS011;15817;42.130;24.762;2022-12-18T04:56:45;9.00;;;7.10;;
28629;SDS011;15817;42.130;24.762;2022-12-18T04:59:14;9.82;;;6.72;;
28629;SDS011;15817;42.130;24.762;2022-12-18T05:01:39;9.73;;;6.38;;
28629;SDS011;15817;42.130;24.762;2022-12-18T05:04:05;9.40;;;6.75;;
28629;SDS011;15817;42.130;24.762;2022-12-18T05:06:31;7.53;;;6.03;;
28629;SDS011;15817;42.130;24.762;2022-12-18T05:08:57;7.38;;;5.63;;
28629;SDS011;15817;42.130;24.762;2022-12-18T05:11:26;6.75;;;5.45;;
28629;SDS011;15817;42.130;24.762;2022-12-18T05:13:52;7.82;;;6.10;;
28629;SDS011;15817;42.130;24.762;2022-12-18T05:16:18;8.63;;;5.55;;
28629;SDS011;15817;42.130;24.762;2022-12-18T05:18:43;5.45;;;4.95;;
28629;SDS011;15817;42.130;24.762;2022-12-18T05:21:09;6.40;;;5.68;;
28629;SDS011;15817;42.130;24.762;2022-12-18T05:23:39;7.07;;;5.88;;
28629;SDS011;15817;42.130;24.762;2022-12-18T05:26:05;8.85;;;6.22;;
28629;SDS011;15817;42.130;24.762;2022-12-18T05:28:33;8.82;;;6.00;;
28629;SDS011;15817;42.130;24.762;2022-12-18T05:31:01;6.80;;;5.35;;
28629;SDS011;15817;42.130;24.762;2022-12-18T05:33:32;7.05;;;6.13;;
28629;SDS011;15817;42.130;24.762;2022-12-18T05:36:00;7.47;;;6.38;;
28629;SDS011;15817;42.130;24.762;2022-12-18T05:38:27;8.50;;;6.63;;
28629;SDS011;15817;42.130;24.762;2022-12-18T05:40:55;10.10;;;6.32;;
28629;SDS011;15817;42.130;24.762;2022-12-18T05:43:21;6.93;;;6.00;;
28629;SDS011;15817;42.130;24.762;2022-12-18T05:45:51;9.85;;;6.60;;
28629;SDS011;15817;42.130;24.762;2022-12-18T05:48:25;6.82;;;5.82;;
28629;SDS011;15817;42.130;24.762;2022-12-18T05:50:51;11.93;;;6.38;;
28629;SDS011;15817;42.130;24.762;2022-12-18T05:53:18;8.23;;;6.35;;
28629;SDS011;15817;42.130;24.762;2022-12-18T05:55:45;9.15;;;6.25;;
28629;SDS011;15817;42.130;24.762;2022-12-18T05:58:15;8.82;;;6.40;;
28629;SDS011;15817;42.130;24.762;2022-12-18T06:00:46;8.68;;;6.10;;
28629;SDS011;15817;42.130;24.762;2022-12-18T06:03:12;7.60;;;5.40;;
28629;SDS011;15817;42.130;24.762;2022-12-18T06:05:39;8.02;;;6.13;;
28629;SDS011;15817;42.130;24.762;2022-12-18T06:08:07;8.50;;;5.65;;
28629;SDS011;15817;42.130;24.762;2022-12-18T06:10:36;7.05;;;5.13;;
28629;SDS011;15817;42.130;24.762;2022-12-18T06:13:09;7.15;;;5.57;;
28629;SDS011;15817;42.130;24.762;2022-12-18T06:15:37;7.40;;;5.97;;
28629;SDS011;15817;42.130;24.762;2022-12-18T06:18:03;8.07;;;5.43;;
28629;SDS011;15817;42.130;24.762;2022-12-18T06:20:29;7.10;;;5.55;;
28629;SDS011;15817;42.130;24.762;2022-12-18T06:25:44;7.80;;;5.07;;
28629;SDS011;15817;42.130;24.762;2022-12-18T06:28:13;6.40;;;5.15;;
28629;SDS011;15817;42.130;24.762;2022-12-18T06:30:39;7.30;;;5.68;;
28629;SDS011;15817;42.130;24.762;2022-12-18T06:33:05;7.18;;;5.63;;
28629;SDS011;15817;42.130;24.762;2022-12-18T06:35:34;10.38;;;6.97;;
28629;SDS011;15817;42.130;24.762;2022-12-18T06:38:12;7.28;;;5.90;;
28629;SDS011;15817;42.130;24.762;2022-12-18T06:43:46;7.25;;;5.68;;
28629;SDS011;15817;42.130;24.762;2022-12-18T06:46:15;9.63;;;6.03;;
28629;SDS011;15817;42.130;24.762;2022-12-18T06:48:41;7.63;;;5.90;;
28629;SDS011;15817;42.130;24.762;2022-12-18T06:51:07;9.82;;;6.00;;
28629;SDS011;15817;42.130;24.762;2022-12-18T06:53:33;11.07;;;6.43;;
28629;SDS011;15817;42.130;24.762;2022-12-18T06:58:31;7.70;;;5.43;;
28629;SDS011;15817;42.130;24.762;2022-12-18T07:01:01;8.27;;;5.50;;
28629;SDS011;15817;42.130;24.762;2022-12-18T07:03:32;6.82;;;5.53;;
28629;SDS011;15817;42.130;24.762;2022-12-18T07:06:04;10.60;;;5.55;;
28629;SDS011;15817;42.130;24.762;2022-12-18T07:08:44;9.75;;;5.93;;
28629;SDS011;15817;42.130;24.762;2022-12-18T07:11:10;7.63;;;6.03;;
28629;SDS011;15817;42.130;24.762;2022-12-18T07:13:40;7.90;;;5.78;;
28629;SDS011;15817;42.130;24.762;2022-12-18T07:16:15;7.65;;;5.72;;
28629;SDS011;15817;42.130;24.762;2022-12-18T07:18:43;7.20;;;5.38;;
28629;SDS011;15817;42.130;24.762;2022-12-18T07:21:10;8.18;;;5.85;;
28629;SDS011;15817;42.130;24.762;2022-12-18T07:23:39;9.35;;;5.75;;
28629;SDS011;15817;42.130;24.762;2022-12-18T07:26:13;6.78;;;5.43;;
28629;SDS011;15817;42.130;24.762;2022-12-18T07:28:40;6.20;;;5.38;;
28629;SDS011;15817;42.130;24.762;2022-12-18T07:31:08;7.22;;;5.15;;
28629;SDS011;15817;42.130;24.762;2022-12-18T07:33:36;8.57;;;5.65;;
28629;SDS011;15817;42.130;24.762;2022-12-18T07:36:14;6.20;;;5.15;;
28629;SDS011;15817;42.130;24.762;2022-12-18T07:38:41;7.95;;;5.00;;
28629;SDS011;15817;42.130;24.762;2022-12-18T07:41:19;8.02;;;5.82;;
28629;SDS011;15817;42.130;24.762;2022-12-18T07:43:48;7.85;;;5.40;;
28629;SDS011;15817;42.130;24.762;2022-12-18T07:46:17;7.95;;;5.57;;
28629;SDS011;15817;42.130;24.762;2022-12-18T07:48:43;8.43;;;5.35;;
28629;SDS011;15817;42.130;24.762;2022-12-18T07:51:21;8.52;;;4.90;;
28629;SDS011;15817;42.130;24.762;2022-12-18T07:53:47;6.80;;;5.18;;
28629;SDS011;15817;42.130;24.762;2022-12-18T07:56:13;9.95;;;5.45;;
28629;SDS011;15817;42.130;24.762;2022-12-18T07:58:41;7.75;;;5.82;;
28629;SDS011;15817;42.130;24.762;2022-12-18T08:01:12;8.23;;;6.07;;
28629;SDS011;15817;42.130;24.762;2022-12-18T08:03:43;6.95;;;4.88;;
28629;SDS011;15817;42.130;24.762;2022-12-18T08:06:18;7.63;;;5.50;;
28629;SDS011;15817;42.130;24.762;2022-12-18T08:08:47;8.38;;;5.40;;
28629;SDS011;15817;42.130;24.762;2022-12-18T08:11:21;9.57;;;5.40;;
28629;SDS011;15817;42.130;24.762;2022-12-18T08:13:55;7.30;;;5.75;;
28629;SDS011;15817;42.130;24.762;2022-12-18T08:16:31;7.68;;;5.57;;
28629;SDS011;15817;42.130;24.762;2022-12-18T08:18:59;9.82;;;5.60;;
28629;SDS011;15817;42.130;24.762;2022-12-18T08:21:26;10.45;;;5.93;;
28629;SDS011;15817;42.130;24.762;2022-12-18T08:23:57;13.50;;;5.55;;
28629;SDS011;15817;42.130;24.762;2022-12-18T08:26:24;10.73;;;6.68;;
28629;SDS011;15817;42.130;24.762;2022-12-18T08:28:58;9.68;;;5.85;;
28629;SDS011;15817;42.130;24.762;2022-12-18T08:31:26;7.80;;;5.60;;
28629;SDS011;15817;42.130;24.762;2022-12-18T08:34:03;9.70;;;5.72;;
28629;SDS011;15817;42.130;24.762;2022-12-18T08:36:33;7.03;;;5.43;;
28629;SDS011;15817;42.130;24.762;2022-12-18T08:39:14;8.52;;;6.07;;
28629;SDS011;15817;42.130;24.762;2022-12-18T08:41:55;9.68;;;6.43;;
28629;SDS011;15817;42.130;24.762;2022-12-18T08:44:39;9.15;;;5.70;;
28629;SDS011;15817;42.130;24.762;2022-12-18T08:47:06;10.88;;;7.07;;
28629;SDS011;15817;42.130;24.762;2022-12-18T08:49:34;12.57;;;6.15;;
28629;SDS011;15817;42.130;24.762;2022-12-18T08:52:06;9.07;;;6.07;;
28629;SDS011;15817;42.130;24.762;2022-12-18T08:54:32;10.65;;;6.38;;
28629;SDS011;15817;42.130;24.762;2022-12-18T08:57:04;8.10;;;6.00;;
28629;SDS011;15817;42.130;24.762;2022-12-18T08:59:38;10.68;;;6.57;;
28629;SDS011;15817;42.130;24.762;2022-12-18T09:02:28;14.45;;;6.00;;
28629;SDS011;15817;42.130;24.762;2022-12-18T09:04:54;6.88;;;5.15;;
28629;SDS011;15817;42.130;24.762;2022-12-18T09:07:23;9.18;;;5.82;;
28629;SDS011;15817;42.130;24.762;2022-12-18T09:09:52;9.75;;;6.03;;
28629;SDS011;15817;42.130;24.762;2022-12-18T09:12:22;11.63;;;6.15;;
28629;SDS011;15817;42.130;24.762;2022-12-18T09:15:03;11.30;;;6.13;;
28629;SDS011;15817;42.130;24.762;2022-12-18T09:17:42;8.55;;;5.63;;
28629;SDS011;15817;42.130;24.762;2022-12-18T09:20:09;8.20;;;6.15;;
28629;SDS011;15817;42.130;24.762;2022-12-18T09:22:40;9.38;;;5.90;;
28629;SDS011;15817;42.130;24.762;2022-12-18T09:25:12;7.18;;;5.18;;
28629;SDS011;15817;42.130;24.762;2022-12-18T09:27:38;9.38;;;5.85;;
28629;SDS011;15817;42.130;24.762;2022-12-18T09:30:04;8.90;;;5.57;;
28629;SDS011;15817;42.130;24.762;2022-12-18T09:32:31;12.20;;;5.97;;
28629;SDS011;15817;42.130;24.762;2022-12-18T09:34:57;7.53;;;5.80;;
28629;SDS011;15817;42.130;24.762;2022-12-18T09:37:27;12.60;;;6.32;;
28629;SDS011;15817;42.130;24.762;2022-12-18T09:39:53;9.45;;;5.80;;
28629;SDS011;15817;42.130;24.762;2022-12-18T09:42:28;13.82;;;6.25;;
28629;SDS011;15817;42.130;24.762;2022-12-18T09:45:34;11.38;;;6.35;;
28629;SDS011;15817;42.130;24.762;2022-12-18T09:48:19;8.27;;;5.45;;
28629;SDS011;15817;42.130;24.762;2022-12-18T09:51:00;8.70;;;6.45;;
28629;SDS011;15817;42.130;24.762;2022-12-18T09:56:51;10.45;;;6.40;;
28629;SDS011;15817;42.130;24.762;2022-12-18T09:59:21;10.55;;;6.28;;
28629;SDS011;15817;42.130;24.762;2022-12-18T10:02:00;10.55;;;6.93;;
28629;SDS011;15817;42.130;24.762;2022-12-18T10:04:55;10.50;;;6.65;;
28629;SDS011;15817;42.130;24.762;2022-12-18T10:07:32;9.98;;;6.50;;
28629;SDS011;15817;42.130;24.762;2022-12-18T10:10:18;11.77;;;6.63;;
28629;SDS011;15817;42.130;24.762;2022-12-18T10:12:52;14.50;;;6.95;;
28629;SDS011;15817;42.130;24.762;2022-12-18T10:18:23;14.20;;;6.78;;
28629;SDS011;15817;42.130;24.762;2022-12-18T10:21:10;12.63;;;6.15;;
28629;SDS011;15817;42.130;24.762;2022-12-18T10:23:48;9.50;;;5.82;;
28629;SDS011;15817;42.130;24.762;2022-12-18T10:26:25;11.45;;;6.43;;
28629;SDS011;15817;42.130;24.762;2022-12-18T10:28:52;11.35;;;6.63;;
28629;SDS011;15817;42.130;24.762;2022-12-18T10:31:20;8.20;;;5.57;;
28629;SDS011;15817;42.130;24.762;2022-12-18T10:33:51;16.52;;;6.93;;
28629;SDS011;15817;42.130;24.762;2022-12-18T10:36:30;10.27;;;6.05;;
28629;SDS011;15817;42.130;24.762;2022-12-18T10:39:21;9.18;;;6.25;;
28629;SDS011;15817;42.130;24.762;2022-12-18T10:41:48;7.47;;;5.60;;
28629;SDS011;15817;42.130;24.762;2022-12-18T10:44:21;10.30;;;6.60;;
28629;SDS011;15817;42.130;24.762;2022-12-18T10:46:55;12.98;;;6.85;;
28629;SDS011;15817;42.130;24.762;2022-12-18T10:49:32;9.13;;;6.70;;
28629;SDS011;15817;42.130;24.762;2022-12-18T10:52:14;9.13;;;6.38;;
28629;SDS011;15817;42.130;24.762;2022-12-18T10:54:46;10.32;;;6.70;;
28629;SDS011;15817;42.130;24.762;2022-12-18T10:57:32;13.73;;;6.90;;
28629;SDS011;15817;42.130;24.762;2022-12-18T11:00:20;11.95;;;6.53;;
28629;SDS011;15817;42.130;24.762;2022-12-18T11:03:00;11.75;;;6.80;;
28629;SDS011;15817;42.130;24.762;2022-12-18T11:05:49;10.40;;;7.03;;
28629;SDS011;15817;42.130;24.762;2022-12-18T11:08:35;10.00;;;7.07;;
28629;SDS011;15817;42.130;24.762;2022-12-18T11:11:02;9.65;;;7.10;;
28629;SDS011;15817;42.130;24.762;2022-12-18T11:13:35;10.95;;;7.22;;
28629;SDS011;15817;42.130;24.762;2022-12-18T11:16:01;8.35;;;6.70;;
28629;SDS011;15817;42.130;24.762;2022-12-18T11:18:34;10.77;;;6.78;;
28629;SDS011;15817;42.130;24.762;2022-12-18T11:21:09;10.32;;;6.53;;
28629;SDS011;15817;42.130;24.762;2022-12-18T11:26:17;13.30;;;7.82;;
28629;SDS011;15817;42.130;24.762;2022-12-18T11:29:15;9.07;;;6.43;;
28629;SDS011;15817;42.130;24.762;2022-12-18T11:32:40;10.38;;;6.93;;
28629;SDS011;15817;42.130;24.762;2022-12-18T11:34:46;8.07;;;6.07;;
28629;SDS011;15817;42.130;24.762;2022-12-18T11:37:20;7.22;;;6.03;;
28629;SDS011;15817;42.130;24.762;2022-12-18T11:39:49;8.23;;;6.68;;
28629;SDS011;15817;42.130;24.762;2022-12-18T11:45:27;9.10;;;6.55;;
28629;SDS011;15817;42.130;24.762;2022-12-18T11:51:09;9.50;;;6.45;;
28629;SDS011;15817;42.130;24.762;2022-12-18T11:53:43;15.43;;;7.10;;
28629;SDS011;15817;42.130;24.762;2022-12-18T11:58:47;11.32;;;7.00;;
28629;SDS011;15817;42.130;24.762;2022-12-18T12:04:22;13.25;;;10.43;;
28629;SDS011;15817;42.130;24.762;2022-12-18T12:13:00;10.23;;;8.05;;
28629;SDS011;15817;42.130;24.762;2022-12-18T12:16:10;10.80;;;7.45;;
28629;SDS011;15817;42.130;24.762;2022-12-18T12:21:41;12.85;;;8.68;;
28629;SDS011;15817;42.130;24.762;2022-12-18T12:29:28;16.67;;;10.43;;
28629;SDS011;15817;42.130;24.762;2022-12-18T12:35:08;14.27;;;8.23;;
28629;SDS011;15817;42.130;24.762;2022-12-18T12:40:48;11.98;;;6.65;;
28629;SDS011;15817;42.130;24.762;2022-12-18T12:46:11;8.93;;;7.00;;
28629;SDS011;15817;42.130;24.762;2022-12-18T12:48:47;12.18;;;7.55;;
28629;SDS011;15817;42.130;24.762;2022-12-18T12:51:45;11.70;;;7.53;;
28629;SDS011;15817;42.130;24.762;2022-12-18T12:54:19;11.75;;;7.22;;
28629;SDS011;15817;42.130;24.762;2022-12-18T12:57:10;10.88;;;6.82;;
28629;SDS011;15817;42.130;24.762;2022-12-18T13:00:16;13.18;;;7.28;;
28629;SDS011;15817;42.130;24.762;2022-12-18T13:03:27;9.75;;;7.03;;
28629;SDS011;15817;42.130;24.762;2022-12-18T13:06:05;9.73;;;7.97;;
28629;SDS011;15817;42.130;24.762;2022-12-18T13:08:53;15.02;;;8.90;;
28629;SDS011;15817;42.130;24.762;2022-12-18T13:11:43;16.83;;;9.10;;
28629;SDS011;15817;42.130;24.762;2022-12-18T13:18:55;15.50;;;11.13;;
28629;SDS011;15817;42.130;24.762;2022-12-18T13:21:29;17.38;;;11.70;;
28629;SDS011;15817;42.130;24.762;2022-12-18T13:24:22;12.68;;;9.05;;
28629;SDS011;15817;42.130;24.762;2022-12-18T13:27:58;17.63;;;10.63;;
28629;SDS011;15817;42.130;24.762;2022-12-18T13:38:20;16.42;;;11.85;;
28629;SDS011;15817;42.130;24.762;2022-12-18T13:41:01;14.65;;;10.93;;
28629;SDS011;15817;42.130;24.762;2022-12-18T13:44:10;14.00;;;10.77;;
28629;SDS011;15817;42.130;24.762;2022-12-18T13:46:45;13.77;;;9.10;;
28629;SDS011;15817;42.130;24.762;2022-12-18T13:49:22;11.40;;;8.68;;
28629;SDS011;15817;42.130;24.762;2022-12-18T13:55:07;12.77;;;9.38;;
28629;SDS011;15817;42.130;24.762;2022-12-18T13:57:47;13.82;;;9.43;;
28629;SDS011;15817;42.130;24.762;2022-12-18T14:02:50;17.00;;;10.38;;
28629;SDS011;15817;42.130;24.762;2022-12-18T14:05:23;16.92;;;10.73;;
28629;SDS011;15817;42.130;24.762;2022-12-18T14:08:16;25.42;;;13.45;;
28629;SDS011;15817;42.130;24.762;2022-12-18T14:10:57;28.15;;;13.35;;
28629;SDS011;15817;42.130;24.762;2022-12-18T14:13:31;20.10;;;12.23;;
28629;SDS011;15817;42.130;24.762;2022-12-18T14:16:11;19.45;;;13.55;;
28629;SDS011;15817;42.130;24.762;2022-12-18T14:19:01;22.98;;;13.95;;
28629;SDS011;15817;42.130;24.762;2022-12-18T14:21:30;18.98;;;13.23;;
28629;SDS011;15817;42.130;24.762;2022-12-18T14:24:18;22.52;;;14.20;;
28629;SDS011;15817;42.130;24.762;2022-12-18T14:26:47;17.45;;;12.32;;
28629;SDS011;15817;42.130;24.762;2022-12-18T14:32:22;18.85;;;13.48;;
28629;SDS011;15817;42.130;24.762;2022-12-18T14:34:52;25.73;;;15.95;;
28629;SDS011;15817;42.130;24.762;2022-12-18T14:37:25;20.23;;;13.82;;
28629;SDS011;15817;42.130;24.762;2022-12-18T14:40:11;20.40;;;12.88;;
28629;SDS011;15817;42.130;24.762;2022-12-18T14:42:54;21.05;;;12.45;;
28629;SDS011;15817;42.130;24.762;2022-12-18T14:45:35;20.80;;;11.48;;
28629;SDS011;15817;42.130;24.762;2022-12-18T14:48:15;19.13;;;11.65;;
28629;SDS011;15817;42.130;24.762;2022-12-18T14:51:00;17.65;;;11.30;;
28629;SDS011;15817;42.130;24.762;2022-12-18T14:53:33;22.70;;;13.65;;
28629;SDS011;15817;42.130;24.762;2022-12-18T14:56:15;25.63;;;16.05;;
28629;SDS011;15817;42.130;24.762;2022-12-18T14:58:50;25.05;;;13.43;;
28629;SDS011;15817;42.130;24.762;2022-12-18T15:01:45;17.30;;;11.05;;
28629;SDS011;15817;42.130;24.762;2022-12-18T15:08:31;15.85;;;11.48;;
28629;SDS011;15817;42.130;24.762;2022-12-18T15:11:30;17.77;;;11.40;;
28629;SDS011;15817;42.130;24.762;2022-12-18T15:21:53;14.90;;;10.43;;
28629;SDS011;15817;42.130;24.762;2022-12-18T15:28:47;16.25;;;11.38;;
28629;SDS011;15817;42.130;24.762;2022-12-18T15:34:19;16.63;;;11.18;;
28629;SDS011;15817;42.130;24.762;2022-12-18T15:40:02;21.15;;;15.45;;
28629;SDS011;15817;42.130;24.762;2022-12-18T15:46:38;24.65;;;16.58;;
28629;SDS011;15817;42.130;24.762;2022-12-18T15:56:47;19.95;;;12.77;;
28629;SDS011;15817;42.130;24.762;2022-12-18T16:00:02;19.50;;;12.52;;
28629;SDS011;15817;42.130;24.762;2022-12-18T16:02:32;19.80;;;12.65;;
28629;SDS011;15817;42.130;24.762;2022-12-18T16:04:58;14.65;;;11.25;;
28629;SDS011;15817;42.130;24.762;2022-12-18T16:07:32;16.08;;;12.45;;
28629;SDS011;15817;42.130;24.762;2022-12-18T16:10:00;15.65;;;11.50;;
28629;SDS011;15817;42.130;24.762;2022-12-18T16:12:32;12.43;;;9.35;;
28629;SDS011;15817;42.130;24.762;2022-12-18T16:14:58;10.75;;;8.02;;
28629;SDS011;15817;42.130;24.762;2022-12-18T16:17:27;11.00;;;8.80;;
28629;SDS011;15817;42.130;24.762;2022-12-18T16:20:00;11.18;;;8.43;;
28629;SDS011;15817;42.130;24.762;2022-12-18T16:22:28;15.25;;;9.23;;
28629;SDS011;15817;42.130;24.762;2022-12-18T16:24:57;10.52;;;7.90;;
28629;SDS011;15817;42.130;24.762;2022-12-18T16:27:25;11.57;;;8.23;;
28629;SDS011;15817;42.130;24.762;2022-12-18T16:29:51;10.27;;;7.53;;
28629;SDS011;15817;42.130;24.762;2022-12-18T16:32:20;11.95;;;8.95;;
28629;SDS011;15817;42.130;24.762;2022-12-18T16:34:47;11.13;;;8.23;;
28629;SDS011;15817;42.130;24.762;2022-12-18T16:37:14;13.00;;;8.23;;
28629;SDS011;15817;42.130;24.762;2022-12-18T16:39:41;11.75;;;8.43;;
28629;SDS011;15817;42.130;24.762;2022-12-18T16:44:40;10.15;;;7.60;;
28629;SDS011;15817;42.130;24.762;2022-12-18T16:47:06;11.00;;;8.27;;
28629;SDS011;15817;42.130;24.762;2022-12-18T16:49:32;12.98;;;8.57;;
28629;SDS011;15817;42.130;24.762;2022-12-18T16:51:58;12.20;;;8.80;;
28629;SDS011;15817;42.130;24.762;2022-12-18T16:54:24;11.15;;;8.25;;
28629;SDS011;15817;42.130;24.762;2022-12-18T16:56:52;11.90;;;8.65;;
28629;SDS011;15817;42.130;24.762;2022-12-18T16:59:24;11.93;;;8.80;;
28629;SDS011;15817;42.130;24.762;2022-12-18T17:01:51;11.63;;;9.02;;
28629;SDS011;15817;42.130;24.762;2022-12-18T17:04:17;14.68;;;10.13;;
28629;SDS011;15817;42.130;24.762;2022-12-18T17:06:48;13.60;;;9.40;;
28629;SDS011;15817;42.130;24.762;2022-12-18T17:09:21;14.00;;;10.75;;
28629;SDS011;15817;42.130;24.762;2022-12-18T17:12:04;12.73;;;9.95;;
28629;SDS011;15817;42.130;24.762;2022-12-18T17:15:15;12.27;;;8.82;;
28629;SDS011;15817;42.130;24.762;2022-12-18T17:17:59;15.50;;;11.10;;
28629;SDS011;15817;42.130;24.762;2022-12-18T17:24:07;13.32;;;8.80;;